createdAt,value
2023-03-15T00:02:12.256Z,96193.34
2023-03-15T00:04:41.296Z,96191.23
2023-03-15T00:07:09.161Z,96185.09
2023-03-15T00:09:36.681Z,96186.91
2023-03-15T00:12:05.244Z,96185.79
2023-03-15T00:14:32.999Z,96190.13
2023-03-15T00:17:00.548Z,96185.90
2023-03-15T00:19:28.211Z,96189.65
2023-03-15T00:21:55.908Z,96188.95
2023-03-15T00:24:27.340Z,96181.06
2023-03-15T00:27:05.439Z,96178.62
2023-03-15T00:29:33.366Z,96185.28
2023-03-15T00:32:01.162Z,96178.95
2023-03-15T00:34:28.772Z,96178.14
2023-03-15T00:36:56.740Z,96173.92
2023-03-15T00:39:25.333Z,96179.80
2023-03-15T00:41:55.302Z,96176.59
2023-03-15T00:44:24.331Z,96172.66
2023-03-15T00:46:52.183Z,96174.11
2023-03-15T00:49:20.721Z,96167.75
2023-03-15T00:51:48.415Z,96170.48
2023-03-15T00:54:16.375Z,96166.34
2023-03-15T00:56:44.338Z,96161.13
2023-03-15T00:59:12.361Z,96155.88
2023-03-15T01:01:42.073Z,96152.98
2023-03-15T01:04:13.704Z,96158.06
2023-03-15T01:06:41.997Z,96151.80
2023-03-15T01:09:09.830Z,96152.22
2023-03-15T01:11:37.977Z,96158.40
2023-03-15T01:14:07.739Z,96135.64
2023-03-15T01:16:36.065Z,96146.81
2023-03-15T01:19:03.785Z,96140.48
2023-03-15T01:21:34.458Z,96140.78
2023-03-15T01:24:02.276Z,96143.55
2023-03-15T01:26:30.208Z,96144.89
2023-03-15T01:28:58.567Z,96139.08
2023-03-15T01:31:30.277Z,96142.38
2023-03-15T01:33:58.995Z,96155.47
2023-03-15T01:36:28.608Z,96154.22
2023-03-15T01:38:57.141Z,96153.21
2023-03-15T01:41:26.876Z,96143.41
2023-03-15T01:43:54.857Z,96151.73
2023-03-15T01:46:34.703Z,96148.84
2023-03-15T01:49:26.982Z,96147.59
2023-03-15T01:52:12.792Z,96148.52
2023-03-15T01:55:05.845Z,96146.73
2023-03-15T01:57:51.013Z,96143.59
2023-03-15T02:00:20.976Z,96138.59
2023-03-15T02:02:58.292Z,96136.78
2023-03-15T02:05:32.197Z,96138.66
2023-03-15T02:08:01.767Z,96131.30
2023-03-15T02:10:37.881Z,96132.97
2023-03-15T02:13:06.880Z,96128.48
2023-03-15T02:15:34.839Z,96119.57
2023-03-15T02:18:04.588Z,96124.45
2023-03-15T02:21:03.731Z,96116.83
2023-03-15T02:23:33.714Z,96119.34
2023-03-15T02:26:25.124Z,96112.94
2023-03-15T02:28:53.537Z,96109.89
2023-03-15T02:31:22.131Z,96109.88
2023-03-15T02:33:52.677Z,96115.59
2023-03-15T02:36:26.796Z,96110.45
2023-03-15T02:38:56.124Z,96115.91
2023-03-15T02:41:37.334Z,96108.39
2023-03-15T02:44:10.235Z,96106.91
2023-03-15T02:46:38.480Z,96102.59
2023-03-15T02:49:08.478Z,96101.42
2023-03-15T02:51:36.547Z,96096.57
2023-03-15T02:54:04.515Z,96094.85
2023-03-15T02:56:32.985Z,96088.82
2023-03-15T02:59:00.994Z,96095.53
2023-03-15T03:01:29.024Z,96094.66
2023-03-15T03:03:57.699Z,96091.06
2023-03-15T03:06:25.512Z,96087.69
2023-03-15T03:08:53.936Z,96085.09
2023-03-15T03:11:21.944Z,96081.75
2023-03-15T03:13:50.791Z,96076.95
2023-03-15T03:16:21.828Z,96077.51
2023-03-15T03:18:49.718Z,96076.18
2023-03-15T03:21:17.473Z,96074.39
2023-03-15T03:23:45.780Z,96073.36
2023-03-15T03:26:17.698Z,96072.58
2023-03-15T03:28:49.113Z,96072.35
2023-03-15T03:31:21.599Z,96070.25
2023-03-15T03:33:50.212Z,96073.97
2023-03-15T03:36:18.322Z,96071.87
2023-03-15T03:38:46.893Z,96068.98
2023-03-15T03:41:15.218Z,96063.44
2023-03-15T03:43:43.461Z,96067.16
2023-03-15T03:46:11.842Z,96063.44
2023-03-15T03:48:41.601Z,96068.75
2023-03-15T03:51:09.569Z,96064.77
2023-03-15T03:53:37.601Z,96069.05
2023-03-15T03:56:06.533Z,96071.48
2023-03-15T03:58:34.844Z,96074.91
2023-03-15T04:01:13.492Z,96073.81
2023-03-15T04:03:42.108Z,96071.64
2023-03-15T04:06:11.570Z,96066.61
2023-03-15T04:08:41.989Z,96076.17
2023-03-15T04:11:11.507Z,96071.41
2023-03-15T04:13:40.864Z,96070.38
2023-03-15T04:16:08.830Z,96073.26
2023-03-15T04:18:39.785Z,96070.60
2023-03-15T04:21:10.081Z,96066.09
2023-03-15T04:23:38.333Z,96062.63
2023-03-15T04:26:26.065Z,96059.74
2023-03-15T04:29:22.786Z,96063.44
2023-03-15T04:31:56.876Z,96066.00
2023-03-15T04:34:30.730Z,96071.02
2023-03-15T04:37:06.210Z,96070.64
2023-03-15T04:39:35.797Z,96072.45
2023-03-15T04:42:22.392Z,96067.82
2023-03-15T04:44:53.540Z,96070.19
2023-03-15T04:47:40.764Z,96067.75
2023-03-15T04:50:11.240Z,96066.13
2023-03-15T04:52:43.539Z,96064.96
2023-03-15T04:55:13.597Z,96059.71
2023-03-15T04:58:01.570Z,96065.80
2023-03-15T05:00:47.881Z,96062.53
2023-03-15T05:03:29.812Z,96068.81
2023-03-15T05:06:04.242Z,96066.53
2023-03-15T05:08:37.028Z,96075.61
2023-03-15T05:11:15.806Z,96066.55
2023-03-15T05:13:48.037Z,96065.35
2023-03-15T05:16:23.669Z,96055.34
2023-03-15T05:18:51.626Z,96062.21
2023-03-15T05:21:24.066Z,96058.77
2023-03-15T05:23:56.867Z,96058.77
2023-03-15T05:26:45.144Z,96057.44
2023-03-15T05:29:15.807Z,96060.10
2023-03-15T05:31:45.603Z,96069.09
2023-03-15T05:34:27.612Z,96066.09
2023-03-15T05:37:00.128Z,96057.47
2023-03-15T05:39:31.588Z,96055.84
2023-03-15T05:42:01.598Z,96049.33
2023-03-15T05:44:40.427Z,96056.12
2023-03-15T05:47:23.671Z,96054.72
2023-03-15T05:50:11.714Z,96052.20
2023-03-15T05:52:41.003Z,96057.11
2023-03-15T05:55:19.538Z,96056.70
2023-03-15T05:57:55.977Z,96061.53
2023-03-15T06:00:23.960Z,96059.70
2023-03-15T06:02:53.780Z,96057.40
2023-03-15T06:05:29.835Z,96047.66
2023-03-15T06:07:58.623Z,96054.03
2023-03-15T06:10:26.741Z,96053.23
2023-03-15T06:12:54.952Z,96053.94
2023-03-15T06:15:23.956Z,96055.15
2023-03-15T06:17:52.285Z,96057.41
2023-03-15T06:20:20.240Z,96058.92
2023-03-15T06:22:48.844Z,96053.63
2023-03-15T06:25:18.705Z,96064.55
2023-03-15T06:27:46.607Z,96070.48
2023-03-15T06:30:17.024Z,96070.28
2023-03-15T06:32:45.254Z,96074.45
2023-03-15T06:35:13.170Z,96075.14
2023-03-15T06:37:41.712Z,96082.91
2023-03-15T06:40:11.937Z,96083.59
2023-03-15T06:42:45.266Z,96086.41
2023-03-15T06:45:17.949Z,96086.00
2023-03-15T06:47:47.283Z,96083.48
2023-03-15T06:50:16.437Z,96081.59
2023-03-15T06:52:44.663Z,96085.73
2023-03-15T06:55:14.341Z,96071.85
2023-03-15T06:57:44.637Z,96075.08
2023-03-15T07:00:13.722Z,96071.97
2023-03-15T07:02:41.705Z,96077.87
2023-03-15T07:05:10.772Z,96071.86
2023-03-15T07:07:38.363Z,96072.08
2023-03-15T07:10:08.948Z,96072.95
2023-03-15T07:12:36.850Z,96071.16
2023-03-15T07:15:05.394Z,96065.04
2023-03-15T07:17:33.559Z,96065.03
2023-03-15T07:20:01.296Z,96071.27
2023-03-15T07:22:29.071Z,96064.64
2023-03-15T07:24:56.522Z,96066.19
2023-03-15T07:27:24.220Z,96072.55
2023-03-15T07:29:51.982Z,96069.61
2023-03-15T07:32:19.675Z,96071.16
2023-03-15T07:34:47.452Z,96066.88
2023-03-15T07:37:16.866Z,96064.07
2023-03-15T07:39:44.836Z,96059.11
2023-03-15T07:42:13.817Z,96054.96
2023-03-15T07:44:42.855Z,96046.09
2023-03-15T07:47:11.044Z,96047.86
2023-03-15T07:49:38.784Z,96049.14
2023-03-15T07:52:07.337Z,96048.73
2023-03-15T07:54:34.978Z,96056.14
2023-03-15T07:57:02.934Z,96055.27
2023-03-15T07:59:30.989Z,96057.30
2023-03-15T08:02:01.489Z,96057.39
2023-03-15T08:04:28.405Z,96055.06
2023-03-15T08:06:56.664Z,96056.41
2023-03-15T08:09:24.488Z,96058.55
2023-03-15T08:11:52.360Z,96055.52
2023-03-15T08:14:20.261Z,96051.59
2023-03-15T08:16:48.133Z,96049.55
2023-03-15T08:19:15.846Z,96044.03
2023-03-15T08:21:44.904Z,96047.56
2023-03-15T08:24:13.246Z,96052.16
2023-03-15T08:26:42.750Z,96053.70
2023-03-15T08:29:16.581Z,96054.91
2023-03-15T08:32:03.085Z,96053.41
2023-03-15T08:34:33.513Z,96057.55
2023-03-15T08:37:01.229Z,96053.75
2023-03-15T08:39:28.888Z,96050.70
2023-03-15T08:41:56.635Z,96052.99
2023-03-15T08:44:24.531Z,96065.49
2023-03-15T08:46:52.275Z,96062.38
2023-03-15T08:49:20.097Z,96069.13
2023-03-15T08:51:47.637Z,96071.97
2023-03-15T08:54:15.173Z,96071.48
2023-03-15T08:56:43.189Z,96069.41
2023-03-15T08:59:12.777Z,96069.08
2023-03-15T09:01:40.778Z,96073.27
2023-03-15T09:04:08.678Z,96075.92
2023-03-15T09:06:36.696Z,96077.36
2023-03-15T09:09:04.598Z,96076.73
2023-03-15T09:11:32.192Z,96076.70
2023-03-15T09:13:59.868Z,96078.63
2023-03-15T09:16:27.817Z,96073.03
2023-03-15T09:18:55.386Z,96067.45
2023-03-15T09:21:24.663Z,96072.01
2023-03-15T09:23:52.390Z,96070.98
2023-03-15T09:26:20.389Z,96078.03
2023-03-15T09:28:49.709Z,96086.97
2023-03-15T09:31:17.727Z,96094.91
2023-03-15T09:33:49.347Z,96085.70
2023-03-15T09:36:17.154Z,96092.52
2023-03-15T09:38:46.881Z,96081.92
2023-03-15T09:41:40.232Z,96082.77
2023-03-15T09:44:25.807Z,96087.27
2023-03-15T09:47:34.769Z,96091.55
2023-03-15T09:50:10.949Z,96088.84
2023-03-15T09:52:49.034Z,96089.11
2023-03-15T09:55:23.812Z,96086.25
2023-03-15T09:57:58.665Z,96081.88
2023-03-15T10:00:40.380Z,96085.03
2023-03-15T10:03:28.839Z,96082.20
2023-03-15T10:06:02.988Z,96078.20
2023-03-15T10:08:32.524Z,96074.05
2023-03-15T10:11:37.294Z,96078.34
2023-03-15T10:14:54.541Z,96082.06
2023-03-15T10:18:14.777Z,96084.08
2023-03-15T10:20:54.087Z,96078.89
2023-03-15T10:23:47.298Z,96075.63
2023-03-15T10:26:19.489Z,96078.75
2023-03-15T10:28:49.461Z,96082.05
2023-03-15T10:31:44.092Z,96083.20
2023-03-15T10:34:04.350Z,96083.45
2023-03-15T10:36:32.795Z,96080.38
2023-03-15T10:39:00.599Z,96079.45
2023-03-15T10:41:47.700Z,96076.20
2023-03-15T10:44:25.594Z,96075.80
2023-03-15T10:47:21.328Z,96079.70
2023-03-15T10:49:40.640Z,96084.55
2023-03-15T10:52:35.010Z,96083.44
2023-03-15T10:55:18.853Z,96089.05
2023-03-15T10:57:59.568Z,96086.54
2023-03-15T11:00:33.519Z,96087.31
2023-03-15T11:03:19.032Z,96087.12
2023-03-15T11:05:51.003Z,96081.52
2023-03-15T11:08:23.474Z,96079.20
2023-03-15T11:10:59.703Z,96066.45
2023-03-15T11:13:31.019Z,96056.22
2023-03-15T11:16:03.915Z,96062.03
2023-03-15T11:18:46.186Z,96055.28
2023-03-15T11:21:17.287Z,96059.53
2023-03-15T11:23:49.452Z,96059.34
2023-03-15T11:26:33.601Z,96057.41
2023-03-15T11:29:25.602Z,96050.45
2023-03-15T11:31:55.194Z,96049.44
2023-03-15T11:34:40.226Z,96056.58
2023-03-15T11:37:19.780Z,96060.20
2023-03-15T11:40:29.672Z,96050.91
2023-03-15T11:43:08.345Z,96042.22
2023-03-15T11:46:06.186Z,96036.37
2023-03-15T11:49:15.901Z,96036.16
2023-03-15T11:51:44.008Z,96035.31
2023-03-15T11:54:17.851Z,96039.57
2023-03-15T11:56:53.530Z,96041.86
2023-03-15T11:59:33.860Z,96034.14
2023-03-15T12:02:16.240Z,96026.98
2023-03-15T12:04:50.840Z,96022.73
2023-03-15T12:07:24.006Z,96009.04
2023-03-15T12:09:55.772Z,96001.70
2023-03-15T12:12:31.933Z,95998.42
2023-03-15T12:15:07.912Z,95992.83
2023-03-15T12:17:52.527Z,95993.21
2023-03-15T12:20:40.343Z,95993.42
2023-03-15T12:23:13.810Z,96003.13
2023-03-15T12:25:55.264Z,96005.30
2023-03-15T12:28:41.126Z,96000.55
2023-03-15T12:31:15.562Z,96005.42
2023-03-15T12:33:54.520Z,96001.22
2023-03-15T12:36:40.623Z,95995.65
2023-03-15T12:39:20.226Z,95997.02
2023-03-15T12:41:50.480Z,95997.39
2023-03-15T12:44:23.614Z,95992.58
2023-03-15T12:46:54.804Z,95981.95
2023-03-15T12:49:28.160Z,95970.77
2023-03-15T12:52:13.150Z,95964.41
2023-03-15T12:54:48.810Z,95956.66
2023-03-15T12:57:29.926Z,95959.00
2023-03-15T13:00:14.679Z,95946.42
2023-03-15T13:02:53.772Z,95948.20
2023-03-15T13:05:35.771Z,95946.06
2023-03-15T13:08:23.493Z,95948.39
2023-03-15T13:11:05.973Z,95948.79
2023-03-15T13:14:03.924Z,95939.69
2023-03-15T13:16:58.317Z,95942.39
2023-03-15T13:19:33.742Z,95939.11
2023-03-15T13:22:32.092Z,95941.62
2023-03-15T13:25:12.591Z,95940.27
2023-03-15T13:27:56.837Z,95936.77
2023-03-15T13:30:42.828Z,95932.31
2023-03-15T13:33:22.198Z,95948.94
2023-03-15T13:36:06.258Z,95949.31
2023-03-15T13:38:44.258Z,95946.81
2023-03-15T13:41:26.032Z,95940.61
2023-03-15T13:43:57.612Z,95944.08
2023-03-15T13:46:29.155Z,95943.70
2023-03-15T13:48:57.287Z,95937.71
2023-03-15T13:51:31.974Z,95935.41
2023-03-15T13:54:17.043Z,95927.28
2023-03-15T13:56:59.258Z,95920.52
2023-03-15T13:59:53.990Z,95923.23
2023-03-15T14:02:47.236Z,95919.53
2023-03-15T14:05:19.373Z,95923.59
2023-03-15T14:07:50.684Z,95919.94
2023-03-15T14:10:37.577Z,95921.47
2023-03-15T14:13:37.809Z,95924.94
2023-03-15T14:16:10.298Z,95924.17
2023-03-15T14:18:41.022Z,95923.58
2023-03-15T14:21:20.001Z,95923.77
2023-03-15T14:23:49.365Z,95928.58
2023-03-15T14:26:21.587Z,95922.21
2023-03-15T14:28:57.724Z,95922.59
2023-03-15T14:31:27.720Z,95917.73
2023-03-15T14:34:00.711Z,95926.23
2023-03-15T14:36:42.516Z,95915.98
2023-03-15T14:39:33.049Z,95914.80
2023-03-15T14:42:00.668Z,95910.32
2023-03-15T14:44:28.339Z,95907.05
2023-03-15T14:46:56.369Z,95907.58
2023-03-15T14:49:26.938Z,95904.10
2023-03-15T14:52:04.656Z,95906.97
2023-03-15T14:54:33.401Z,95912.75
2023-03-15T14:57:01.241Z,95916.59
2023-03-15T14:59:28.965Z,95918.70
2023-03-15T15:02:00.575Z,95915.18
2023-03-15T15:04:33.122Z,95913.23
2023-03-15T15:07:02.966Z,95912.04
2023-03-15T15:09:31.028Z,95920.31
2023-03-15T15:11:58.827Z,95918.36
2023-03-15T15:14:26.501Z,95920.27
2023-03-15T15:16:54.204Z,95920.25
2023-03-15T15:19:21.851Z,95920.63
2023-03-15T15:21:51.172Z,95917.88
2023-03-15T15:24:21.940Z,95931.36
2023-03-15T15:26:49.724Z,95926.88
2023-03-15T15:29:17.219Z,95930.90
2023-03-15T15:31:45.499Z,95932.61
2023-03-15T15:34:13.299Z,95941.45
2023-03-15T15:36:43.466Z,95942.00
2023-03-15T15:39:21.757Z,95955.25
2023-03-15T15:41:50.125Z,95959.27
2023-03-15T15:44:21.534Z,95962.70
2023-03-15T15:46:49.786Z,95968.66
2023-03-15T15:49:19.001Z,95963.97
2023-03-15T15:51:51.634Z,95960.08
2023-03-15T15:54:26.135Z,95967.92
2023-03-15T15:56:56.979Z,95968.27
2023-03-15T15:59:25.197Z,95972.44
2023-03-15T16:02:01.148Z,95972.98
2023-03-15T16:04:25.882Z,95972.56
2023-03-15T16:07:01.108Z,95976.00
2023-03-15T16:09:34.476Z,95974.42
2023-03-15T16:12:04.128Z,95974.38
2023-03-15T16:14:31.919Z,95963.53
2023-03-15T16:17:01.766Z,95965.22
2023-03-15T16:19:29.587Z,95966.66
2023-03-15T16:21:57.704Z,95973.51
2023-03-15T16:24:29.777Z,95973.62
2023-03-15T16:27:01.679Z,95978.77
2023-03-15T16:29:48.093Z,95982.58
2023-03-15T16:32:37.186Z,95989.63
2023-03-15T16:34:56.657Z,95998.80
2023-03-15T16:37:31.454Z,95992.41
2023-03-15T16:40:01.769Z,95996.41
2023-03-15T16:42:30.168Z,96003.63
2023-03-15T16:44:58.825Z,95999.34
2023-03-15T16:47:26.817Z,95998.33
2023-03-15T16:49:55.376Z,96002.87
2023-03-15T16:52:23.490Z,96006.66
2023-03-15T16:54:51.765Z,96011.99
2023-03-15T16:57:22.633Z,96028.30
2023-03-15T16:59:51.399Z,96031.73
2023-03-15T17:02:23.329Z,96034.92
2023-03-15T17:04:52.266Z,96039.91
2023-03-15T17:07:28.391Z,96044.86
2023-03-15T17:09:59.326Z,96049.41
2023-03-15T17:12:28.995Z,96043.35
2023-03-15T17:14:58.919Z,96054.63
2023-03-15T17:17:36.375Z,96059.33
2023-03-15T17:20:11.939Z,96056.17
2023-03-15T17:22:43.858Z,96066.25
2023-03-15T17:25:12.140Z,96078.43
2023-03-15T17:27:42.084Z,96084.89
2023-03-15T17:30:27.241Z,96085.74
2023-03-15T17:32:55.686Z,96090.28
2023-03-15T17:35:37.251Z,96095.94
2023-03-15T17:38:10.515Z,96110.19
2023-03-15T17:40:38.406Z,96118.80
2023-03-15T17:43:06.775Z,96124.60
2023-03-15T17:45:37.106Z,96117.81
2023-03-15T17:48:05.135Z,96121.20
2023-03-15T17:50:34.648Z,96125.00
2023-03-15T17:53:07.672Z,96123.25
2023-03-15T17:55:35.838Z,96120.36
2023-03-15T17:58:14.711Z,96121.06
2023-03-15T18:00:43.074Z,96119.64
2023-03-15T18:03:14.234Z,96120.40
2023-03-15T18:05:42.824Z,96114.52
2023-03-15T18:08:17.881Z,96124.20
2023-03-15T18:10:47.285Z,96115.22
2023-03-15T18:13:19.295Z,96113.93
2023-03-15T18:15:51.266Z,96115.25
2023-03-15T18:18:20.430Z,96118.78
2023-03-15T18:20:49.048Z,96126.89
2023-03-15T18:23:19.690Z,96126.03
2023-03-15T18:25:47.845Z,96130.55
2023-03-15T18:28:15.853Z,96128.11
2023-03-15T18:30:45.796Z,96131.84
2023-03-15T18:33:15.541Z,96133.67
2023-03-15T18:35:45.746Z,96131.23
2023-03-15T18:38:15.433Z,96133.83
2023-03-15T18:40:42.961Z,96139.80
2023-03-15T18:43:13.968Z,96145.56
2023-03-15T18:45:42.709Z,96155.22
2023-03-15T18:48:11.026Z,96159.27
2023-03-15T18:50:38.765Z,96165.23
2023-03-15T18:53:06.753Z,96165.62
2023-03-15T18:55:35.153Z,96175.37
2023-03-15T18:58:04.225Z,96173.08
2023-03-15T19:00:35.067Z,96185.94
2023-03-15T19:03:05.257Z,96183.16
2023-03-15T19:05:37.904Z,96191.57
2023-03-15T19:08:05.953Z,96195.92
2023-03-15T19:10:36.144Z,96193.02
2023-03-15T19:13:07.640Z,96197.08
2023-03-15T19:15:35.549Z,96202.55
2023-03-15T19:18:05.352Z,96208.69
2023-03-15T19:20:35.952Z,96216.09
2023-03-15T19:23:05.658Z,96221.20
2023-03-15T19:25:33.683Z,96227.23
2023-03-15T19:28:01.638Z,96223.67
2023-03-15T19:30:30.483Z,96233.40
2023-03-15T19:33:00.952Z,96229.84
2023-03-15T19:35:28.963Z,96236.29
2023-03-15T19:38:00.303Z,96239.98
2023-03-15T19:40:27.919Z,96244.11
2023-03-15T19:42:55.449Z,96242.91
2023-03-15T19:45:23.222Z,96245.34
2023-03-15T19:47:51.139Z,96243.23
2023-03-15T19:50:19.869Z,96249.70
2023-03-15T19:52:47.863Z,96260.98
2023-03-15T19:55:28.478Z,96262.32
2023-03-15T19:57:58.014Z,96257.06
2023-03-15T20:00:25.838Z,96267.11
2023-03-15T20:02:54.977Z,96272.81
2023-03-15T20:05:29.697Z,96272.56
2023-03-15T20:08:02.443Z,96270.69
2023-03-15T20:10:30.881Z,96277.26
2023-03-15T20:12:58.851Z,96286.73
2023-03-15T20:15:29.325Z,96280.16
2023-03-15T20:17:56.802Z,96289.33
2023-03-15T20:20:24.742Z,96295.36
2023-03-15T20:22:52.714Z,96303.16
2023-03-15T20:25:20.912Z,96305.73
2023-03-15T20:27:51.454Z,96304.14
2023-03-15T20:30:21.611Z,96312.44
2023-03-15T20:32:49.830Z,96316.56
2023-03-15T20:35:17.981Z,96311.63
2023-03-15T20:37:46.059Z,96316.32
2023-03-15T20:40:15.966Z,96321.02
2023-03-15T20:42:45.488Z,96319.67
2023-03-15T20:45:19.434Z,96319.22
2023-03-15T20:47:47.347Z,96319.54
2023-03-15T20:50:17.802Z,96322.89
2023-03-15T20:52:45.697Z,96320.11
2023-03-15T20:55:14.730Z,96318.77
2023-03-15T20:57:45.536Z,96320.56
2023-03-15T21:00:17.029Z,96329.38
2023-03-15T21:02:46.538Z,96333.41
2023-03-15T21:05:15.715Z,96340.20
2023-03-15T21:07:43.894Z,96344.23
2023-03-15T21:10:15.199Z,96346.34
2023-03-15T21:12:44.311Z,96349.59
2023-03-15T21:15:14.328Z,96350.47
2023-03-15T21:17:42.098Z,96345.11
2023-03-15T21:20:12.659Z,96345.23
2023-03-15T21:22:41.304Z,96359.64
2023-03-15T21:25:09.901Z,96352.36
2023-03-15T21:27:37.956Z,96357.84
2023-03-15T21:30:07.978Z,96362.30
2023-03-15T21:32:35.513Z,96370.54
2023-03-15T21:35:04.582Z,96369.08
2023-03-15T21:37:33.496Z,96377.56
2023-03-15T21:40:04.851Z,96373.11
2023-03-15T21:42:34.144Z,96373.98
2023-03-15T21:45:02.182Z,96376.55
2023-03-15T21:47:30.742Z,96375.20
2023-03-15T21:49:58.487Z,96379.31
2023-03-15T21:52:27.690Z,96374.87
2023-03-15T21:54:55.451Z,96374.41
2023-03-15T21:57:23.744Z,96376.40
2023-03-15T21:59:51.508Z,96378.64
2023-03-15T22:02:19.204Z,96371.70
2023-03-15T22:04:47.054Z,96378.74
2023-03-15T22:07:14.937Z,96375.94
2023-03-15T22:09:42.819Z,96379.59
2023-03-15T22:12:10.775Z,96381.80
2023-03-15T22:14:39.647Z,96379.66
2023-03-15T22:17:08.264Z,96372.59
2023-03-15T22:19:36.495Z,96372.71
2023-03-15T22:22:04.867Z,96381.39
2023-03-15T22:24:33.428Z,96380.36
2023-03-15T22:27:01.612Z,96378.34
2023-03-15T22:29:29.785Z,96377.56
2023-03-15T22:31:57.834Z,96383.94
2023-03-15T22:34:26.891Z,96384.59
2023-03-15T22:36:55.653Z,96394.17
2023-03-15T22:39:23.534Z,96391.05
2023-03-15T22:41:51.155Z,96390.37
2023-03-15T22:44:19.307Z,96385.76
2023-03-15T22:46:47.434Z,96387.09
2023-03-15T22:49:15.285Z,96395.55
2023-03-15T22:51:43.255Z,96400.72
2023-03-15T22:54:10.810Z,96399.90
2023-03-15T22:56:40.897Z,96396.66
2023-03-15T22:59:08.303Z,96396.73
2023-03-15T23:01:36.920Z,96408.55
2023-03-15T23:04:04.746Z,96417.63
2023-03-15T23:06:32.903Z,96422.56
2023-03-15T23:09:01.295Z,96423.52
2023-03-15T23:11:29.103Z,96432.42
2023-03-15T23:13:56.841Z,96428.16
2023-03-15T23:16:24.737Z,96435.95
2023-03-15T23:18:52.572Z,96441.08
2023-03-15T23:21:20.797Z,96438.19
2023-03-15T23:23:48.543Z,96436.67
2023-03-15T23:26:18.426Z,96445.52
2023-03-15T23:28:46.674Z,96445.03
2023-03-15T23:31:14.480Z,96450.05
2023-03-15T23:33:44.154Z,96452.47
2023-03-15T23:36:11.998Z,96451.91
2023-03-15T23:38:40.338Z,96455.24
2023-03-15T23:41:08.022Z,96450.69
2023-03-15T23:43:35.684Z,96456.25
2023-03-15T23:46:05.080Z,96455.47
2023-03-15T23:48:35.604Z,96467.41
2023-03-15T23:51:04.327Z,96472.19
2023-03-15T23:53:32.341Z,96482.39
2023-03-15T23:56:00.897Z,96489.14
2023-03-15T23:58:28.817Z,96490.88
